Airport ICAO


13:45 UTC

20°C

Light rain


An affordable passengers' Moving Map for your aircraft. Made for the iPad and the iPhone
More information here

LFPO Orly


Paris FRANCE   VFR CB


METAR LFPO 231330Z 25016G26KT 6000 -RA BKN018 FEW020CB OVC076 20/18 Q1012 TEMPO 25025G40KT 2500 RA 0h15min

TAF LFPO 231100Z 2312/2418 23020G30KT 9999 BKN011 TEMPO 2312/2315 25025G40KT 2500 RA BKN006 SCT015CB BECMG 2315/2318 32010G20KT BKN020 BECMG 2321/2324 34004KT SCT040 BECMG 2400/2403 VRB03KT CAVOK BECMG 2409/2412 02005KT SCT035 BECMG 2415/2418 CAVOK 2h45min





NOTAMS

OPEN